createdAt,value
2024-01-24T00:00:52.471Z,22.43
2024-01-24T00:03:22.832Z,20.33
2024-01-24T00:05:53.167Z,23.00
2024-01-24T00:08:24.663Z,24.13
2024-01-24T00:10:54.677Z,24.27
2024-01-24T00:13:24.489Z,26.33
2024-01-24T00:15:54.102Z,25.27
2024-01-24T00:18:24.087Z,26.53
2024-01-24T00:20:55.550Z,26.40
2024-01-24T00:23:27.127Z,27.70
2024-01-24T00:25:57.121Z,27.50
2024-01-24T00:28:28.371Z,23.43
2024-01-24T00:30:57.903Z,20.90
2024-01-24T00:33:28.034Z,21.00
2024-01-24T00:35:57.804Z,18.80
2024-01-24T00:38:29.058Z,19.40
2024-01-24T00:40:58.768Z,20.47
2024-01-24T00:43:28.897Z,19.63
2024-01-24T00:45:58.727Z,19.07
2024-01-24T00:48:28.338Z,18.47
2024-01-24T00:50:58.313Z,18.63
2024-01-24T00:53:32.226Z,17.73
2024-01-24T00:56:01.978Z,17.67
2024-01-24T00:58:31.966Z,16.73
2024-01-24T01:01:01.562Z,16.50
2024-01-24T01:03:31.339Z,17.30
2024-01-24T01:06:01.194Z,16.63
2024-01-24T01:08:32.225Z,16.63
2024-01-24T01:11:01.912Z,16.63
2024-01-24T01:13:34.102Z,15.47
2024-01-24T01:16:03.809Z,16.00
2024-01-24T01:18:33.662Z,15.27
2024-01-24T01:21:03.631Z,18.13
2024-01-24T01:23:35.904Z,21.23
2024-01-24T01:26:05.502Z,17.10
2024-01-24T01:28:35.310Z,16.63
2024-01-24T01:31:05.025Z,15.40
2024-01-24T01:33:35.276Z,14.70
2024-01-24T01:36:13.885Z,14.07
2024-01-24T01:38:49.822Z,14.37
2024-01-24T01:41:19.841Z,15.17
2024-01-24T01:43:51.084Z,15.17
2024-01-24T01:46:21.620Z,15.10
2024-01-24T01:48:52.327Z,14.13
2024-01-24T01:51:22.508Z,14.00
2024-01-24T01:53:53.616Z,13.50
2024-01-24T01:56:23.957Z,14.73
2024-01-24T01:58:54.337Z,13.57
2024-01-24T02:01:24.406Z,13.57
2024-01-24T02:03:54.574Z,13.87
2024-01-24T02:06:24.632Z,13.40
2024-01-24T02:08:55.861Z,14.00
2024-01-24T02:11:26.097Z,13.97
2024-01-24T02:14:01.764Z,14.00
2024-01-24T02:16:31.813Z,14.10
2024-01-24T02:19:01.898Z,13.83
2024-01-24T02:21:31.629Z,14.27
2024-01-24T02:24:03.839Z,13.63
2024-01-24T02:26:34.891Z,14.07
2024-01-24T02:29:04.595Z,13.67
2024-01-24T02:31:34.405Z,13.83
2024-01-24T02:34:04.692Z,13.83
2024-01-24T02:36:34.739Z,14.00
2024-01-24T02:39:05.276Z,14.30
2024-01-24T02:41:36.424Z,13.97
2024-01-24T02:44:06.022Z,14.23
2024-01-24T02:46:35.664Z,13.93
2024-01-24T02:49:05.508Z,13.43
2024-01-24T02:51:35.297Z,13.30
2024-01-24T02:54:06.089Z,13.80
2024-01-24T02:56:38.884Z,13.37
2024-01-24T02:59:08.812Z,12.17
2024-01-24T03:01:38.227Z,13.23
2024-01-24T03:04:09.026Z,13.30
2024-01-24T03:06:38.677Z,13.37
2024-01-24T03:09:09.061Z,13.20
2024-01-24T03:11:40.590Z,13.73
2024-01-24T03:14:10.843Z,13.73
2024-01-24T03:16:40.132Z,12.70
2024-01-24T03:19:09.769Z,13.23
2024-01-24T03:21:39.500Z,12.87
2024-01-24T03:24:09.559Z,13.33
2024-01-24T03:26:40.915Z,12.70
2024-01-24T03:29:11.244Z,12.80
2024-01-24T03:31:45.615Z,12.73
2024-01-24T03:34:15.731Z,13.20
2024-01-24T03:36:46.886Z,13.53
2024-01-24T03:39:17.077Z,13.47
2024-01-24T03:41:50.541Z,13.30
2024-01-24T03:44:20.686Z,12.90
2024-01-24T03:46:51.126Z,14.00
2024-01-24T03:49:23.229Z,13.10
2024-01-24T03:51:53.199Z,13.30
2024-01-24T03:54:23.727Z,13.43
2024-01-24T03:56:55.053Z,13.47
2024-01-24T03:59:25.056Z,13.07
2024-01-24T04:01:54.763Z,13.17
2024-01-24T04:04:24.383Z,12.87
2024-01-24T04:06:54.310Z,12.83
2024-01-24T04:09:26.304Z,13.77
2024-01-24T04:11:57.425Z,15.60
2024-01-24T04:14:27.184Z,14.63
2024-01-24T04:16:56.812Z,14.00
2024-01-24T04:19:26.773Z,14.90
2024-01-24T04:21:56.562Z,14.03
2024-01-24T04:24:26.473Z,15.77
2024-01-24T04:26:58.719Z,15.00
2024-01-24T04:29:28.423Z,13.97
2024-01-24T04:31:58.235Z,13.10
2024-01-24T04:34:28.422Z,13.33
2024-01-24T04:36:58.534Z,13.43
2024-01-24T04:39:30.668Z,12.43
2024-01-24T04:42:08.953Z,13.73
2024-01-24T04:44:45.739Z,13.73
2024-01-24T04:47:15.082Z,14.87
2024-01-24T04:49:46.177Z,13.07
2024-01-24T04:52:16.660Z,14.07
2024-01-24T04:54:46.501Z,17.00
2024-01-24T04:57:17.777Z,16.20
2024-01-24T04:59:53.374Z,16.50
2024-01-24T05:02:26.099Z,15.70
2024-01-24T05:04:55.790Z,18.20
2024-01-24T05:07:25.366Z,17.80
2024-01-24T05:09:59.041Z,20.53
2024-01-24T05:12:30.396Z,17.07
2024-01-24T05:15:01.497Z,17.73
2024-01-24T05:17:30.896Z,17.87
2024-01-24T05:20:00.404Z,17.33
2024-01-24T05:22:29.905Z,15.33
2024-01-24T05:25:02.603Z,15.87
2024-01-24T05:27:33.769Z,16.63
2024-01-24T05:30:15.848Z,17.03
2024-01-24T05:32:50.011Z,16.40
2024-01-24T05:35:21.696Z,16.43
2024-01-24T05:37:51.642Z,17.13
2024-01-24T05:40:21.423Z,17.70
2024-01-24T05:42:53.688Z,18.27
2024-01-24T05:45:23.983Z,20.13
2024-01-24T05:47:54.253Z,17.27
2024-01-24T05:50:23.940Z,18.87
2024-01-24T05:52:53.412Z,18.83
2024-01-24T05:55:23.259Z,16.30
2024-01-24T05:57:54.464Z,15.83
2024-01-24T06:00:24.191Z,17.23
2024-01-24T06:02:53.931Z,16.93
2024-01-24T06:05:23.681Z,16.30
2024-01-24T06:07:54.332Z,16.67
2024-01-24T06:10:24.178Z,15.30
2024-01-24T06:12:55.255Z,16.00
2024-01-24T06:15:24.808Z,18.83
2024-01-24T06:17:54.319Z,17.23
2024-01-24T06:20:24.022Z,20.93
2024-01-24T06:22:53.539Z,19.57
2024-01-24T06:25:23.356Z,20.53
2024-01-24T06:27:53.257Z,20.33
2024-01-24T06:30:25.706Z,22.70
2024-01-24T06:32:56.507Z,21.80
2024-01-24T06:35:25.966Z,21.40
2024-01-24T06:37:56.000Z,19.43
2024-01-24T06:40:25.603Z,19.27
2024-01-24T06:42:56.397Z,19.33
2024-01-24T06:45:28.280Z,21.60
2024-01-24T06:47:57.936Z,19.23
2024-01-24T06:50:29.379Z,17.83
2024-01-24T06:52:59.883Z,15.83
2024-01-24T06:55:29.701Z,17.97
2024-01-24T06:57:59.153Z,19.10
2024-01-24T07:00:31.480Z,19.43
2024-01-24T07:03:01.592Z,18.30
2024-01-24T07:05:31.507Z,18.37
2024-01-24T07:08:01.038Z,17.90
2024-01-24T07:10:30.504Z,18.50
2024-01-24T07:13:00.677Z,17.30
2024-01-24T07:15:32.321Z,16.83
2024-01-24T07:18:02.237Z,17.50
2024-01-24T07:20:32.435Z,17.60
2024-01-24T07:23:03.165Z,19.83
2024-01-24T07:25:32.876Z,20.80
2024-01-24T07:28:02.513Z,29.13
2024-01-24T07:30:33.365Z,32.73
2024-01-24T07:33:05.320Z,31.37
2024-01-24T07:35:35.092Z,28.77
2024-01-24T07:38:04.800Z,25.43
2024-01-24T07:40:34.623Z,27.27
2024-01-24T07:43:04.415Z,27.73
2024-01-24T07:45:37.929Z,25.70
2024-01-24T07:48:09.310Z,25.63
2024-01-24T07:50:39.283Z,27.17
2024-01-24T07:53:09.609Z,26.33
2024-01-24T07:55:51.195Z,23.60
2024-01-24T07:58:26.452Z,24.13
2024-01-24T08:00:58.244Z,23.17
2024-01-24T08:03:28.343Z,22.63
2024-01-24T08:05:58.893Z,22.10
2024-01-24T08:08:29.055Z,22.43
2024-01-24T08:10:59.104Z,21.60
2024-01-24T08:13:28.952Z,22.10
2024-01-24T08:16:00.397Z,23.57
2024-01-24T08:18:31.202Z,25.73
2024-01-24T08:21:00.679Z,26.27
2024-01-24T08:23:38.275Z,26.80
2024-01-24T08:26:13.862Z,56.63
2024-01-24T08:28:44.297Z,39.90
2024-01-24T08:31:15.586Z,27.50
2024-01-24T08:33:48.001Z,24.17
2024-01-24T08:36:20.603Z,24.60
2024-01-24T08:38:50.590Z,21.63
2024-01-24T08:41:20.062Z,22.93
2024-01-24T08:43:50.180Z,23.87
2024-01-24T08:46:21.935Z,24.37
2024-01-24T08:48:52.657Z,21.43
2024-01-24T08:51:22.704Z,22.07
2024-01-24T08:53:52.943Z,19.47
2024-01-24T08:56:22.620Z,18.83
2024-01-24T08:58:52.562Z,18.13
2024-01-24T09:01:25.683Z,19.23
2024-01-24T09:03:56.614Z,19.77
2024-01-24T09:06:26.865Z,18.73
2024-01-24T09:08:56.819Z,18.77
2024-01-24T09:11:31.917Z,20.83
2024-01-24T09:14:07.689Z,19.70
2024-01-24T09:16:38.925Z,19.57
2024-01-24T09:19:08.698Z,18.53
2024-01-24T09:21:40.991Z,19.57
2024-01-24T09:24:11.239Z,19.00
2024-01-24T09:26:41.668Z,19.40
2024-01-24T09:29:13.835Z,19.37
2024-01-24T09:31:47.617Z,19.17
2024-01-24T09:34:18.404Z,22.10
2024-01-24T09:36:48.720Z,22.03
2024-01-24T09:39:19.142Z,20.00
2024-01-24T09:41:52.608Z,20.97
2024-01-24T09:44:22.832Z,20.97
2024-01-24T09:46:57.168Z,20.53
2024-01-24T09:49:27.538Z,21.50
2024-01-24T09:51:57.748Z,21.13
2024-01-24T09:54:28.822Z,21.43
2024-01-24T09:56:58.964Z,20.57
2024-01-24T09:59:28.767Z,21.13
2024-01-24T10:02:01.040Z,20.60
2024-01-24T10:04:31.570Z,20.00
2024-01-24T10:07:01.482Z,20.37
2024-01-24T10:09:31.746Z,20.20
2024-01-24T10:12:01.361Z,20.87
2024-01-24T10:14:31.150Z,21.33
2024-01-24T10:17:02.986Z,21.67
2024-01-24T10:19:32.764Z,20.83
2024-01-24T10:22:02.617Z,20.23
2024-01-24T10:24:33.056Z,21.80
2024-01-24T10:27:03.153Z,18.97
2024-01-24T10:29:33.169Z,17.80
2024-01-24T10:32:04.108Z,18.60
2024-01-24T10:34:35.078Z,19.67
2024-01-24T10:37:04.875Z,20.10
2024-01-24T10:39:38.232Z,20.03
2024-01-24T10:42:12.006Z,19.10
2024-01-24T10:44:46.833Z,19.80
2024-01-24T10:47:19.173Z,17.80
2024-01-24T10:49:50.570Z,18.07
2024-01-24T10:52:21.957Z,18.70
2024-01-24T10:54:52.853Z,17.73
2024-01-24T10:57:22.950Z,18.43
2024-01-24T10:59:55.189Z,21.60
2024-01-24T11:02:26.365Z,19.80
2024-01-24T11:04:57.677Z,19.50
2024-01-24T11:07:33.401Z,20.80
2024-01-24T11:10:17.513Z,22.60
2024-01-24T11:12:47.912Z,21.17
2024-01-24T11:15:18.666Z,21.43
2024-01-24T11:18:28.496Z,21.10
2024-01-24T11:21:00.227Z,20.80
2024-01-24T11:23:42.563Z,20.30
2024-01-24T11:26:13.062Z,20.10
2024-01-24T11:28:42.964Z,19.77
2024-01-24T11:31:13.947Z,21.57
2024-01-24T11:34:16.988Z,20.67
2024-01-24T11:36:50.220Z,18.90
2024-01-24T11:39:36.139Z,21.30
2024-01-24T11:42:44.503Z,18.63
2024-01-24T11:45:19.082Z,18.73
2024-01-24T11:47:49.749Z,18.33
2024-01-24T11:50:22.369Z,18.17
2024-01-24T11:53:00.418Z,19.30
2024-01-24T11:55:31.597Z,18.73
2024-01-24T11:58:04.426Z,18.30
2024-01-24T12:00:34.407Z,17.97
2024-01-24T12:03:04.108Z,17.83
2024-01-24T12:05:34.216Z,18.23
2024-01-24T12:08:08.393Z,18.20
2024-01-24T12:10:40.994Z,17.00
2024-01-24T12:13:12.055Z,16.93
2024-01-24T12:15:43.117Z,17.13
2024-01-24T12:18:15.677Z,16.50
2024-01-24T12:20:50.702Z,17.80
2024-01-24T12:23:23.628Z,18.60
2024-01-24T12:25:53.942Z,16.37
2024-01-24T12:28:25.070Z,16.83
2024-01-24T12:30:57.331Z,17.07
2024-01-24T12:33:27.544Z,16.77
2024-01-24T12:35:57.248Z,17.13
2024-01-24T12:38:29.126Z,18.10
2024-01-24T12:40:59.443Z,18.13
2024-01-24T12:43:29.380Z,17.93
2024-01-24T12:45:59.953Z,17.47
2024-01-24T12:48:30.589Z,17.40
2024-01-24T12:51:00.800Z,17.60
2024-01-24T12:53:32.271Z,17.63
2024-01-24T12:56:02.421Z,19.23
2024-01-24T12:58:32.316Z,18.67
2024-01-24T13:01:02.778Z,19.23
2024-01-24T13:03:32.854Z,18.00
2024-01-24T13:06:03.091Z,18.80
2024-01-24T13:08:34.637Z,18.43
2024-01-24T13:11:04.650Z,18.97
2024-01-24T13:13:34.347Z,19.63
2024-01-24T13:16:04.612Z,19.33
2024-01-24T13:18:36.680Z,19.30
2024-01-24T13:21:11.669Z,18.10
2024-01-24T13:23:44.055Z,18.87
2024-01-24T13:26:13.807Z,20.03
2024-01-24T13:28:43.993Z,19.43
2024-01-24T13:31:14.166Z,20.47
2024-01-24T13:33:46.689Z,19.03
2024-01-24T13:36:18.234Z,19.57
2024-01-24T13:38:49.472Z,19.50
2024-01-24T13:41:20.526Z,19.07
2024-01-24T13:43:51.246Z,20.73
2024-01-24T13:46:21.013Z,20.17
2024-01-24T13:48:51.609Z,19.38
2024-01-24T13:51:27.096Z,19.67
2024-01-24T13:54:06.161Z,19.57
2024-01-24T13:56:36.897Z,20.03
2024-01-24T13:59:07.225Z,19.70
2024-01-24T14:01:42.837Z,19.63
2024-01-24T14:04:16.646Z,21.43
2024-01-24T14:06:48.689Z,20.20
2024-01-24T14:09:20.397Z,19.83
2024-01-24T14:11:50.621Z,19.30
2024-01-24T14:14:20.831Z,19.80
2024-01-24T14:16:51.245Z,19.33
2024-01-24T14:19:23.007Z,19.97
2024-01-24T14:21:52.954Z,18.83
2024-01-24T14:24:24.438Z,19.37
2024-01-24T14:26:55.581Z,19.08
2024-01-24T14:29:25.385Z,19.90
2024-01-24T14:31:54.988Z,19.75
2024-01-24T14:34:24.442Z,19.77
2024-01-24T14:37:03.952Z,19.73
2024-01-24T14:39:42.186Z,20.03
2024-01-24T14:42:13.345Z,20.00
2024-01-24T14:44:43.570Z,19.77
2024-01-24T14:47:14.917Z,20.27
2024-01-24T14:49:48.484Z,21.03
2024-01-24T14:52:20.778Z,20.43
2024-01-24T14:54:53.645Z,22.00
2024-01-24T14:57:24.232Z,20.57
2024-01-24T14:59:54.450Z,22.67
2024-01-24T15:02:26.478Z,21.70
2024-01-24T15:04:59.710Z,22.87
2024-01-24T15:07:30.556Z,21.47
2024-01-24T15:10:01.927Z,24.80
2024-01-24T15:12:31.881Z,24.70
2024-01-24T15:15:01.455Z,24.13
2024-01-24T15:17:33.547Z,24.97
2024-01-24T15:20:05.219Z,22.37
2024-01-24T15:22:37.346Z,24.33
2024-01-24T15:25:11.362Z,23.33
2024-01-24T15:27:41.986Z,25.23
2024-01-24T15:30:13.155Z,23.40
2024-01-24T15:32:43.049Z,23.83
2024-01-24T15:35:13.317Z,25.60
2024-01-24T15:37:43.329Z,23.47
2024-01-24T15:40:18.039Z,26.10
2024-01-24T15:42:50.653Z,25.80
2024-01-24T15:45:26.450Z,26.17
2024-01-24T15:47:57.121Z,25.90
2024-01-24T15:50:27.015Z,28.57
2024-01-24T15:52:56.945Z,27.53
2024-01-24T15:55:29.530Z,28.17
2024-01-24T15:57:59.315Z,27.97
2024-01-24T16:00:29.517Z,29.43
2024-01-24T16:02:59.849Z,29.00
2024-01-24T16:05:36.212Z,31.93
2024-01-24T16:08:06.696Z,39.80
2024-01-24T16:10:40.243Z,30.90
2024-01-24T16:13:10.478Z,31.40
2024-01-24T16:15:40.741Z,34.47
2024-01-24T16:18:10.966Z,37.80
2024-01-24T16:20:41.745Z,35.50
2024-01-24T16:23:11.762Z,37.40
2024-01-24T16:25:42.892Z,35.60
2024-01-24T16:28:15.512Z,35.77
2024-01-24T16:30:46.167Z,35.50
2024-01-24T16:33:15.975Z,36.93
2024-01-24T16:35:47.722Z,36.57
2024-01-24T16:38:18.118Z,37.33
2024-01-24T16:40:49.358Z,39.60
2024-01-24T16:43:19.580Z,39.67
2024-01-24T16:45:50.753Z,41.63
2024-01-24T16:48:21.496Z,38.57
2024-01-24T16:50:52.222Z,47.07
2024-01-24T16:53:22.230Z,48.07
2024-01-24T16:55:54.000Z,45.57
2024-01-24T16:58:23.799Z,46.37
2024-01-24T17:00:54.311Z,43.00
2024-01-24T17:03:24.336Z,48.57
2024-01-24T17:05:54.479Z,52.33
2024-01-24T17:08:24.559Z,68.00
2024-01-24T17:10:57.965Z,77.03
2024-01-24T17:13:28.098Z,49.57
2024-01-24T17:15:57.815Z,49.77
2024-01-24T17:18:32.042Z,49.03
2024-01-24T17:21:07.480Z,50.73
2024-01-24T17:23:37.569Z,50.30
2024-01-24T17:26:09.390Z,49.83
2024-01-24T17:28:39.444Z,48.90
2024-01-24T17:31:09.404Z,47.83
2024-01-24T17:33:39.391Z,47.23
2024-01-24T17:36:09.702Z,45.33
2024-01-24T17:38:39.602Z,48.37
2024-01-24T17:41:11.150Z,46.03
2024-01-24T17:43:41.191Z,71.20
2024-01-24T17:46:11.124Z,61.13
2024-01-24T17:48:40.788Z,55.13
2024-01-24T17:51:10.608Z,49.50
2024-01-24T17:53:40.617Z,47.53
2024-01-24T17:56:12.340Z,50.93
2024-01-24T17:58:42.086Z,51.13
2024-01-24T18:01:12.257Z,49.83
2024-01-24T18:03:42.373Z,50.53
2024-01-24T18:06:13.053Z,54.40
2024-01-24T18:08:43.181Z,54.90
2024-01-24T18:11:15.761Z,54.27
2024-01-24T18:13:45.473Z,56.77
2024-01-24T18:16:15.732Z,70.00
2024-01-24T18:18:45.459Z,64.87
2024-01-24T18:21:15.293Z,75.57
2024-01-24T18:23:45.323Z,71.40
2024-01-24T18:26:16.571Z,73.03
2024-01-24T18:28:48.843Z,83.63
2024-01-24T18:31:18.975Z,73.07
2024-01-24T18:33:48.839Z,69.00
2024-01-24T18:36:19.000Z,67.13
2024-01-24T18:38:48.491Z,73.27
2024-01-24T18:41:25.882Z,66.27
2024-01-24T18:43:56.236Z,65.30
2024-01-24T18:46:30.623Z,65.80
2024-01-24T18:49:04.402Z,61.60
2024-01-24T18:51:36.402Z,58.90
2024-01-24T18:54:07.643Z,58.27
2024-01-24T18:56:40.620Z,67.60
2024-01-24T18:59:13.630Z,63.33
2024-01-24T19:01:44.283Z,69.27
2024-01-24T19:04:16.873Z,65.63
2024-01-24T19:06:47.293Z,74.27
2024-01-24T19:09:17.781Z,71.70
2024-01-24T19:11:49.543Z,83.00
2024-01-24T19:14:21.292Z,98.27
2024-01-24T19:16:53.265Z,82.57
2024-01-24T19:19:24.996Z,67.40
2024-01-24T19:21:56.365Z,60.73
2024-01-24T19:24:26.753Z,59.83
2024-01-24T19:26:58.181Z,58.93
2024-01-24T19:29:28.969Z,58.77
2024-01-24T19:31:58.977Z,61.33
2024-01-24T19:34:29.494Z,59.77
2024-01-24T19:37:00.514Z,59.77
2024-01-24T19:39:30.419Z,61.27
2024-01-24T19:42:03.244Z,63.47
2024-01-24T19:44:33.629Z,61.67
2024-01-24T19:47:03.699Z,60.70
2024-01-24T19:49:34.659Z,57.00
2024-01-24T19:52:04.668Z,58.67
2024-01-24T19:54:35.395Z,58.67
2024-01-24T19:57:07.650Z,57.77
2024-01-24T19:59:37.769Z,58.70
2024-01-24T20:02:08.399Z,62.60
2024-01-24T20:04:38.842Z,59.03
2024-01-24T20:07:09.242Z,57.73
2024-01-24T20:09:39.221Z,60.80
2024-01-24T20:12:12.684Z,61.67
2024-01-24T20:14:42.659Z,66.63
2024-01-24T20:17:12.598Z,59.87
2024-01-24T20:19:46.723Z,58.27
2024-01-24T20:22:18.474Z,61.90
2024-01-24T20:24:48.784Z,64.43
2024-01-24T20:27:20.045Z,64.73
2024-01-24T20:29:51.080Z,61.53
2024-01-24T20:32:21.422Z,59.90
2024-01-24T20:34:51.836Z,59.10
2024-01-24T20:37:21.850Z,60.63
2024-01-24T20:39:53.441Z,59.97
2024-01-24T20:42:29.164Z,61.73
2024-01-24T20:45:00.327Z,61.10
2024-01-24T20:47:30.680Z,61.43
2024-01-24T20:50:01.364Z,63.40
2024-01-24T20:52:31.766Z,58.73
2024-01-24T20:55:01.541Z,59.60
2024-01-24T20:57:34.389Z,62.63
2024-01-24T21:00:04.998Z,65.10
2024-01-24T21:02:35.323Z,64.47
2024-01-24T21:05:06.609Z,61.97
2024-01-24T21:07:36.749Z,70.17
2024-01-24T21:10:08.242Z,71.50
2024-01-24T21:12:40.141Z,65.47
2024-01-24T21:15:11.158Z,59.83
2024-01-24T21:17:41.636Z,56.20
2024-01-24T21:20:12.387Z,62.63
2024-01-24T21:22:42.535Z,61.83
2024-01-24T21:25:12.905Z,58.00
2024-01-24T21:27:44.300Z,54.80
2024-01-24T21:30:15.340Z,55.00
2024-01-24T21:32:45.167Z,59.83
2024-01-24T21:35:15.770Z,56.47
2024-01-24T21:37:45.968Z,58.37
2024-01-24T21:40:16.368Z,55.93
2024-01-24T21:42:48.253Z,55.27
2024-01-24T21:45:19.946Z,55.00
2024-01-24T21:47:50.373Z,53.63
2024-01-24T21:50:21.002Z,60.37
2024-01-24T21:52:50.719Z,60.90
2024-01-24T21:55:20.530Z,59.43
2024-01-24T21:57:54.178Z,58.30
2024-01-24T22:00:24.353Z,52.80
2024-01-24T22:02:55.870Z,52.27
2024-01-24T22:05:25.976Z,54.47
2024-01-24T22:07:56.417Z,56.10
2024-01-24T22:10:26.391Z,92.90
2024-01-24T22:12:59.345Z,91.67
2024-01-24T22:15:29.072Z,71.20
2024-01-24T22:17:59.282Z,61.27
2024-01-24T22:20:29.374Z,57.17
2024-01-24T22:22:59.104Z,56.50
2024-01-24T22:25:29.031Z,53.13
2024-01-24T22:28:00.869Z,55.63
2024-01-24T22:30:32.149Z,58.63
2024-01-24T22:33:02.622Z,54.13
2024-01-24T22:35:32.669Z,54.27
2024-01-24T22:38:02.573Z,55.77
2024-01-24T22:40:32.915Z,55.53
2024-01-24T22:43:04.262Z,57.43
2024-01-24T22:45:34.041Z,56.47
2024-01-24T22:48:04.515Z,55.27
2024-01-24T22:50:34.808Z,57.53
2024-01-24T22:53:05.333Z,71.83
2024-01-24T22:55:35.587Z,62.27
2024-01-24T22:58:07.258Z,60.83
2024-01-24T23:00:37.211Z,56.17
2024-01-24T23:03:07.961Z,58.07
2024-01-24T23:05:37.904Z,55.60
2024-01-24T23:08:08.888Z,56.20
2024-01-24T23:10:39.131Z,54.20
2024-01-24T23:13:10.608Z,54.97
2024-01-24T23:15:40.684Z,55.57
2024-01-24T23:18:10.617Z,52.03
2024-01-24T23:20:40.559Z,51.77
2024-01-24T23:23:11.164Z,50.97
2024-01-24T23:25:40.776Z,53.07
2024-01-24T23:28:12.322Z,54.20
2024-01-24T23:30:42.407Z,49.83
2024-01-24T23:33:12.726Z,50.57
2024-01-24T23:35:42.304Z,49.03
2024-01-24T23:38:11.785Z,49.77
2024-01-24T23:40:41.385Z,49.33
2024-01-24T23:43:12.572Z,48.23
2024-01-24T23:45:42.458Z,49.67
2024-01-24T23:48:12.612Z,46.73
2024-01-24T23:50:43.013Z,50.13
2024-01-24T23:53:13.722Z,48.80
2024-01-24T23:55:43.549Z,47.60
2024-01-24T23:58:14.904Z,46.90
